sensor_id;sensor_type;location;lat;lon;timestamp;P1;durP1;ratioP1;P2;durP2;ratioP2
60973;SDS011;46846;51.528;5.076;2022-12-05T00:01:30;114.55;;;104.85;;
60973;SDS011;46846;51.528;5.076;2022-12-05T00:04:05;108.30;;;101.55;;
60973;SDS011;46846;51.528;5.076;2022-12-05T00:06:32;102.82;;;95.35;;
60973;SDS011;46846;51.528;5.076;2022-12-05T00:08:59;108.93;;;101.55;;
60973;SDS011;46846;51.528;5.076;2022-12-05T00:11:26;113.00;;;104.80;;
60973;SDS011;46846;51.528;5.076;2022-12-05T00:13:53;102.18;;;95.82;;
60973;SDS011;46846;51.528;5.076;2022-12-05T00:16:21;113.80;;;105.38;;
60973;SDS011;46846;51.528;5.076;2022-12-05T00:18:48;97.88;;;92.22;;
60973;SDS011;46846;51.528;5.076;2022-12-05T00:21:15;115.65;;;107.03;;
60973;SDS011;46846;51.528;5.076;2022-12-05T00:23:43;99.95;;;92.68;;
60973;SDS011;46846;51.528;5.076;2022-12-05T00:26:09;108.90;;;101.13;;
60973;SDS011;46846;51.528;5.076;2022-12-05T00:31:04;94.13;;;88.13;;
60973;SDS011;46846;51.528;5.076;2022-12-05T00:33:31;110.05;;;102.45;;
60973;SDS011;46846;51.528;5.076;2022-12-05T00:36:01;120.60;;;111.28;;
60973;SDS011;46846;51.528;5.076;2022-12-05T00:38:32;115.80;;;107.03;;
60973;SDS011;46846;51.528;5.076;2022-12-05T00:41:01;115.13;;;106.30;;
60973;SDS011;46846;51.528;5.076;2022-12-05T00:43:30;110.90;;;103.22;;
60973;SDS011;46846;51.528;5.076;2022-12-05T00:45:59;116.38;;;107.40;;
60973;SDS011;46846;51.528;5.076;2022-12-05T00:48:29;97.97;;;92.00;;
60973;SDS011;46846;51.528;5.076;2022-12-05T00:51:02;107.90;;;101.10;;
60973;SDS011;46846;51.528;5.076;2022-12-05T00:53:32;114.28;;;106.03;;
60973;SDS011;46846;51.528;5.076;2022-12-05T00:56:40;104.93;;;97.47;;
60973;SDS011;46846;51.528;5.076;2022-12-05T00:58:47;109.90;;;102.47;;
60973;SDS011;46846;51.528;5.076;2022-12-05T01:01:16;101.50;;;94.80;;
60973;SDS011;46846;51.528;5.076;2022-12-05T01:03:44;104.97;;;98.00;;
60973;SDS011;46846;51.528;5.076;2022-12-05T01:06:11;112.75;;;104.35;;
60973;SDS011;46846;51.528;5.076;2022-12-05T01:08:38;104.05;;;97.35;;
60973;SDS011;46846;51.528;5.076;2022-12-05T01:11:04;113.78;;;105.90;;
60973;SDS011;46846;51.528;5.076;2022-12-05T01:13:30;113.13;;;105.38;;
60973;SDS011;46846;51.528;5.076;2022-12-05T01:15:56;117.43;;;108.60;;
60973;SDS011;46846;51.528;5.076;2022-12-05T01:18:22;113.07;;;105.00;;
60973;SDS011;46846;51.528;5.076;2022-12-05T01:23:13;96.00;;;89.63;;
60973;SDS011;46846;51.528;5.076;2022-12-05T01:25:43;105.00;;;97.47;;
60973;SDS011;46846;51.528;5.076;2022-12-05T01:28:11;112.82;;;104.53;;
60973;SDS011;46846;51.528;5.076;2022-12-05T01:30:37;107.22;;;99.18;;
60973;SDS011;46846;51.528;5.076;2022-12-05T01:33:04;113.43;;;105.15;;
60973;SDS011;46846;51.528;5.076;2022-12-05T01:35:30;105.22;;;97.82;;
60973;SDS011;46846;51.528;5.076;2022-12-05T01:37:56;111.80;;;104.65;;
60973;SDS011;46846;51.528;5.076;2022-12-05T01:40:22;123.00;;;113.70;;
60973;SDS011;46846;51.528;5.076;2022-12-05T01:42:47;116.30;;;107.43;;
60973;SDS011;46846;51.528;5.076;2022-12-05T01:45:14;114.28;;;106.70;;
60973;SDS011;46846;51.528;5.076;2022-12-05T01:47:42;105.43;;;98.05;;
60973;SDS011;46846;51.528;5.076;2022-12-05T01:50:08;112.90;;;104.43;;
60973;SDS011;46846;51.528;5.076;2022-12-05T01:52:35;99.80;;;93.85;;
60973;SDS011;46846;51.528;5.076;2022-12-05T01:55:05;110.47;;;102.00;;
60973;SDS011;46846;51.528;5.076;2022-12-05T01:57:34;115.55;;;107.78;;
60973;SDS011;46846;51.528;5.076;2022-12-05T02:02:28;96.40;;;89.60;;
60973;SDS011;46846;51.528;5.076;2022-12-05T02:07:52;110.93;;;103.28;;
60973;SDS011;46846;51.528;5.076;2022-12-05T02:10:18;102.47;;;96.00;;
60973;SDS011;46846;51.528;5.076;2022-12-05T02:12:44;110.25;;;102.43;;
60973;SDS011;46846;51.528;5.076;2022-12-05T02:15:19;108.13;;;100.85;;
60973;SDS011;46846;51.528;5.076;2022-12-05T02:20:35;107.22;;;100.03;;
60973;SDS011;46846;51.528;5.076;2022-12-05T02:23:57;118.32;;;109.43;;
60973;SDS011;46846;51.528;5.076;2022-12-05T02:28:43;116.10;;;107.78;;
60973;SDS011;46846;51.528;5.076;2022-12-05T02:31:52;110.55;;;102.90;;
60973;SDS011;46846;51.528;5.076;2022-12-05T02:42:27;111.55;;;103.90;;
60973;SDS011;46846;51.528;5.076;2022-12-05T02:45:03;108.07;;;100.57;;
60973;SDS011;46846;51.528;5.076;2022-12-05T02:47:34;111.28;;;102.22;;
60973;SDS011;46846;51.528;5.076;2022-12-05T02:50:05;105.97;;;98.70;;
60973;SDS011;46846;51.528;5.076;2022-12-05T02:52:33;111.65;;;104.60;;
60973;SDS011;46846;51.528;5.076;2022-12-05T02:54:59;113.20;;;106.22;;
60973;SDS011;46846;51.528;5.076;2022-12-05T02:57:26;107.13;;;100.22;;
60973;SDS011;46846;51.528;5.076;2022-12-05T02:59:52;106.40;;;99.65;;
60973;SDS011;46846;51.528;5.076;2022-12-05T03:04:56;116.13;;;108.00;;
60973;SDS011;46846;51.528;5.076;2022-12-05T03:07:26;111.00;;;102.43;;
60973;SDS011;46846;51.528;5.076;2022-12-05T03:09:57;108.70;;;101.70;;
60973;SDS011;46846;51.528;5.076;2022-12-05T03:12:28;106.75;;;99.32;;
60973;SDS011;46846;51.528;5.076;2022-12-05T03:15:02;118.32;;;110.13;;
60973;SDS011;46846;51.528;5.076;2022-12-05T03:17:54;116.72;;;108.28;;
60973;SDS011;46846;51.528;5.076;2022-12-05T03:25:29;117.93;;;109.47;;
60973;SDS011;46846;51.528;5.076;2022-12-05T03:28:32;107.85;;;100.45;;
60973;SDS011;46846;51.528;5.076;2022-12-05T03:31:08;115.85;;;107.97;;
60973;SDS011;46846;51.528;5.076;2022-12-05T03:33:41;102.97;;;96.45;;
60973;SDS011;46846;51.528;5.076;2022-12-05T03:41:25;107.80;;;100.43;;
60973;SDS011;46846;51.528;5.076;2022-12-05T03:46:47;114.00;;;105.88;;
60973;SDS011;46846;51.528;5.076;2022-12-05T03:49:21;115.85;;;107.45;;
60973;SDS011;46846;51.528;5.076;2022-12-05T03:52:15;111.63;;;104.10;;
60973;SDS011;46846;51.528;5.076;2022-12-05T03:54:55;110.95;;;102.82;;
60973;SDS011;46846;51.528;5.076;2022-12-05T03:58:05;119.25;;;110.57;;
60973;SDS011;46846;51.528;5.076;2022-12-05T04:00:18;116.50;;;108.57;;
60973;SDS011;46846;51.528;5.076;2022-12-05T04:02:54;106.45;;;99.25;;
60973;SDS011;46846;51.528;5.076;2022-12-05T04:05:26;113.43;;;105.53;;
60973;SDS011;46846;51.528;5.076;2022-12-05T04:07:57;115.25;;;107.47;;
60973;SDS011;46846;51.528;5.076;2022-12-05T04:10:28;113.70;;;106.55;;
60973;SDS011;46846;51.528;5.076;2022-12-05T04:13:12;108.57;;;100.97;;
60973;SDS011;46846;51.528;5.076;2022-12-05T04:15:44;115.70;;;107.85;;
60973;SDS011;46846;51.528;5.076;2022-12-05T04:18:35;116.90;;;108.60;;
60973;SDS011;46846;51.528;5.076;2022-12-05T04:21:05;110.97;;;103.82;;
60973;SDS011;46846;51.528;5.076;2022-12-05T04:23:49;116.65;;;108.80;;
60973;SDS011;46846;51.528;5.076;2022-12-05T04:26:35;112.22;;;105.03;;
60973;SDS011;46846;51.528;5.076;2022-12-05T04:29:06;107.70;;;99.95;;
60973;SDS011;46846;51.528;5.076;2022-12-05T04:31:43;98.75;;;92.80;;
60973;SDS011;46846;51.528;5.076;2022-12-05T04:34:15;113.38;;;105.63;;
60973;SDS011;46846;51.528;5.076;2022-12-05T04:36:49;108.10;;;100.53;;
60973;SDS011;46846;51.528;5.076;2022-12-05T04:39:28;105.15;;;98.32;;
60973;SDS011;46846;51.528;5.076;2022-12-05T04:42:05;113.55;;;104.95;;
60973;SDS011;46846;51.528;5.076;2022-12-05T04:44:36;108.30;;;101.03;;
60973;SDS011;46846;51.528;5.076;2022-12-05T04:47:07;114.15;;;106.68;;
60973;SDS011;46846;51.528;5.076;2022-12-05T04:49:36;116.15;;;108.15;;
60973;SDS011;46846;51.528;5.076;2022-12-05T04:52:06;108.22;;;101.28;;
60973;SDS011;46846;51.528;5.076;2022-12-05T04:54:36;118.70;;;110.20;;
60973;SDS011;46846;51.528;5.076;2022-12-05T04:57:08;120.47;;;111.50;;
60973;SDS011;46846;51.528;5.076;2022-12-05T04:59:38;117.18;;;108.97;;
60973;SDS011;46846;51.528;5.076;2022-12-05T05:02:06;122.00;;;113.93;;
60973;SDS011;46846;51.528;5.076;2022-12-05T05:04:44;108.43;;;101.18;;
60973;SDS011;46846;51.528;5.076;2022-12-05T05:07:15;119.45;;;110.82;;
60973;SDS011;46846;51.528;5.076;2022-12-05T05:09:41;106.90;;;100.10;;
60973;SDS011;46846;51.528;5.076;2022-12-05T05:12:08;113.75;;;105.75;;
60973;SDS011;46846;51.528;5.076;2022-12-05T05:14:33;118.43;;;109.50;;
60973;SDS011;46846;51.528;5.076;2022-12-05T05:16:59;109.38;;;102.40;;
60973;SDS011;46846;51.528;5.076;2022-12-05T05:19:24;107.37;;;100.40;;
60973;SDS011;46846;51.528;5.076;2022-12-05T05:21:50;121.50;;;113.53;;
60973;SDS011;46846;51.528;5.076;2022-12-05T05:26:42;113.07;;;104.88;;
60973;SDS011;46846;51.528;5.076;2022-12-05T05:29:09;103.78;;;97.68;;
60973;SDS011;46846;51.528;5.076;2022-12-05T05:31:36;114.63;;;107.07;;
60973;SDS011;46846;51.528;5.076;2022-12-05T05:36:27;106.47;;;99.35;;
60973;SDS011;46846;51.528;5.076;2022-12-05T05:38:54;109.53;;;102.00;;
60973;SDS011;46846;51.528;5.076;2022-12-05T05:41:25;111.95;;;104.32;;
60973;SDS011;46846;51.528;5.076;2022-12-05T05:43:52;105.28;;;98.75;;
60973;SDS011;46846;51.528;5.076;2022-12-05T05:46:19;112.60;;;105.43;;
60973;SDS011;46846;51.528;5.076;2022-12-05T05:48:46;118.50;;;109.93;;
60973;SDS011;46846;51.528;5.076;2022-12-05T05:51:12;113.50;;;105.40;;
60973;SDS011;46846;51.528;5.076;2022-12-05T05:53:39;116.55;;;109.00;;
60973;SDS011;46846;51.528;5.076;2022-12-05T05:56:06;109.18;;;101.68;;
60973;SDS011;46846;51.528;5.076;2022-12-05T05:58:34;118.15;;;110.43;;
60973;SDS011;46846;51.528;5.076;2022-12-05T06:01:18;113.68;;;105.35;;
60973;SDS011;46846;51.528;5.076;2022-12-05T06:03:46;113.72;;;105.85;;
60973;SDS011;46846;51.528;5.076;2022-12-05T06:06:13;115.25;;;107.93;;
60973;SDS011;46846;51.528;5.076;2022-12-05T06:08:40;114.28;;;105.97;;
60973;SDS011;46846;51.528;5.076;2022-12-05T06:11:08;124.18;;;115.43;;
60973;SDS011;46846;51.528;5.076;2022-12-05T06:13:38;121.47;;;113.05;;
60973;SDS011;46846;51.528;5.076;2022-12-05T06:16:04;117.68;;;109.45;;
60973;SDS011;46846;51.528;5.076;2022-12-05T06:18:31;117.03;;;109.38;;
60973;SDS011;46846;51.528;5.076;2022-12-05T06:20:57;115.50;;;108.28;;
60973;SDS011;46846;51.528;5.076;2022-12-05T06:23:23;120.38;;;112.35;;
60973;SDS011;46846;51.528;5.076;2022-12-05T06:25:50;116.78;;;108.60;;
60973;SDS011;46846;51.528;5.076;2022-12-05T06:28:17;115.78;;;107.57;;
60973;SDS011;46846;51.528;5.076;2022-12-05T06:30:44;114.47;;;107.32;;
60973;SDS011;46846;51.528;5.076;2022-12-05T06:33:09;113.22;;;106.13;;
60973;SDS011;46846;51.528;5.076;2022-12-05T06:35:35;119.50;;;111.32;;
60973;SDS011;46846;51.528;5.076;2022-12-05T06:38:00;117.53;;;109.03;;
60973;SDS011;46846;51.528;5.076;2022-12-05T06:40:26;116.67;;;108.87;;
60973;SDS011;46846;51.528;5.076;2022-12-05T06:42:51;108.15;;;101.55;;
60973;SDS011;46846;51.528;5.076;2022-12-05T06:45:17;122.80;;;113.93;;
60973;SDS011;46846;51.528;5.076;2022-12-05T06:47:42;118.75;;;110.40;;
60973;SDS011;46846;51.528;5.076;2022-12-05T06:50:08;115.53;;;108.25;;
60973;SDS011;46846;51.528;5.076;2022-12-05T06:52:33;117.82;;;109.93;;
60973;SDS011;46846;51.528;5.076;2022-12-05T06:54:59;110.50;;;103.57;;
60973;SDS011;46846;51.528;5.076;2022-12-05T06:57:24;112.80;;;105.17;;
60973;SDS011;46846;51.528;5.076;2022-12-05T06:59:51;114.28;;;106.47;;
60973;SDS011;46846;51.528;5.076;2022-12-05T07:02:37;111.78;;;104.38;;
60973;SDS011;46846;51.528;5.076;2022-12-05T07:05:02;119.77;;;111.27;;
60973;SDS011;46846;51.528;5.076;2022-12-05T07:07:28;107.60;;;101.10;;
60973;SDS011;46846;51.528;5.076;2022-12-05T07:09:54;123.05;;;114.32;;
60973;SDS011;46846;51.528;5.076;2022-12-05T07:12:19;119.70;;;111.83;;
60973;SDS011;46846;51.528;5.076;2022-12-05T07:14:44;112.03;;;104.87;;
60973;SDS011;46846;51.528;5.076;2022-12-05T07:17:10;115.57;;;107.55;;
60973;SDS011;46846;51.528;5.076;2022-12-05T07:19:35;107.43;;;100.70;;
60973;SDS011;46846;51.528;5.076;2022-12-05T07:22:01;118.38;;;110.35;;
60973;SDS011;46846;51.528;5.076;2022-12-05T07:24:26;118.13;;;109.22;;
60973;SDS011;46846;51.528;5.076;2022-12-05T07:26:52;119.07;;;111.70;;
60973;SDS011;46846;51.528;5.076;2022-12-05T07:29:17;109.60;;;102.37;;
60973;SDS011;46846;51.528;5.076;2022-12-05T07:31:43;119.78;;;112.38;;
60973;SDS011;46846;51.528;5.076;2022-12-05T07:34:09;120.77;;;112.50;;
60973;SDS011;46846;51.528;5.076;2022-12-05T07:36:34;114.13;;;106.80;;
60973;SDS011;46846;51.528;5.076;2022-12-05T07:39:00;119.00;;;110.85;;
60973;SDS011;46846;51.528;5.076;2022-12-05T07:41:26;116.18;;;108.80;;
60973;SDS011;46846;51.528;5.076;2022-12-05T07:43:54;109.90;;;102.75;;
60973;SDS011;46846;51.528;5.076;2022-12-05T07:46:21;119.65;;;111.95;;
60973;SDS011;46846;51.528;5.076;2022-12-05T07:48:47;119.85;;;112.30;;
60973;SDS011;46846;51.528;5.076;2022-12-05T07:51:15;115.75;;;107.97;;
60973;SDS011;46846;51.528;5.076;2022-12-05T07:53:41;117.05;;;109.55;;
60973;SDS011;46846;51.528;5.076;2022-12-05T07:56:09;118.88;;;110.82;;
60973;SDS011;46846;51.528;5.076;2022-12-05T07:58:41;121.07;;;113.22;;
60973;SDS011;46846;51.528;5.076;2022-12-05T08:01:11;114.47;;;106.18;;
60973;SDS011;46846;51.528;5.076;2022-12-05T08:03:41;117.22;;;109.28;;
60973;SDS011;46846;51.528;5.076;2022-12-05T08:06:09;119.90;;;112.57;;
60973;SDS011;46846;51.528;5.076;2022-12-05T08:08:36;115.72;;;108.32;;
60973;SDS011;46846;51.528;5.076;2022-12-05T08:11:06;121.05;;;113.13;;
60973;SDS011;46846;51.528;5.076;2022-12-05T08:13:34;122.28;;;114.75;;
60973;SDS011;46846;51.528;5.076;2022-12-05T08:16:01;115.47;;;108.35;;
60973;SDS011;46846;51.528;5.076;2022-12-05T08:18:30;114.20;;;106.55;;
60973;SDS011;46846;51.528;5.076;2022-12-05T08:21:02;123.18;;;115.68;;
60973;SDS011;46846;51.528;5.076;2022-12-05T08:23:30;113.07;;;106.20;;
60973;SDS011;46846;51.528;5.076;2022-12-05T08:26:00;115.50;;;108.15;;
60973;SDS011;46846;51.528;5.076;2022-12-05T08:28:39;111.93;;;105.15;;
60973;SDS011;46846;51.528;5.076;2022-12-05T08:31:12;117.47;;;109.95;;
60973;SDS011;46846;51.528;5.076;2022-12-05T08:33:39;119.28;;;111.70;;
60973;SDS011;46846;51.528;5.076;2022-12-05T08:36:09;112.50;;;105.70;;
60973;SDS011;46846;51.528;5.076;2022-12-05T08:38:36;117.32;;;109.97;;
60973;SDS011;46846;51.528;5.076;2022-12-05T08:41:02;121.50;;;114.03;;
60973;SDS011;46846;51.528;5.076;2022-12-05T08:43:30;115.55;;;107.97;;
60973;SDS011;46846;51.528;5.076;2022-12-05T08:45:55;121.00;;;113.78;;
60973;SDS011;46846;51.528;5.076;2022-12-05T08:48:21;122.85;;;115.38;;
60973;SDS011;46846;51.528;5.076;2022-12-05T08:50:47;116.40;;;109.25;;
60973;SDS011;46846;51.528;5.076;2022-12-05T08:53:13;124.10;;;116.55;;
60973;SDS011;46846;51.528;5.076;2022-12-05T08:55:39;118.53;;;111.20;;
60973;SDS011;46846;51.528;5.076;2022-12-05T08:58:04;107.70;;;101.05;;
60973;SDS011;46846;51.528;5.076;2022-12-05T09:00:30;115.30;;;108.32;;
60973;SDS011;46846;51.528;5.076;2022-12-05T09:02:55;117.65;;;110.60;;
60973;SDS011;46846;51.528;5.076;2022-12-05T09:05:24;112.72;;;105.65;;
60973;SDS011;46846;51.528;5.076;2022-12-05T09:07:50;119.80;;;112.22;;
60973;SDS011;46846;51.528;5.076;2022-12-05T09:10:15;126.33;;;118.00;;
60973;SDS011;46846;51.528;5.076;2022-12-05T09:12:41;118.07;;;110.85;;
60973;SDS011;46846;51.528;5.076;2022-12-05T09:15:07;115.07;;;107.78;;
60973;SDS011;46846;51.528;5.076;2022-12-05T09:17:34;109.82;;;103.18;;
60973;SDS011;46846;51.528;5.076;2022-12-05T09:19:59;117.20;;;109.90;;
60973;SDS011;46846;51.528;5.076;2022-12-05T09:22:25;116.80;;;109.53;;
60973;SDS011;46846;51.528;5.076;2022-12-05T09:24:50;110.22;;;103.50;;
60973;SDS011;46846;51.528;5.076;2022-12-05T09:27:16;114.53;;;107.60;;
60973;SDS011;46846;51.528;5.076;2022-12-05T09:29:41;127.57;;;119.63;;
60973;SDS011;46846;51.528;5.076;2022-12-05T09:32:07;118.60;;;111.15;;
60973;SDS011;46846;51.528;5.076;2022-12-05T09:34:33;124.32;;;116.38;;
60973;SDS011;46846;51.528;5.076;2022-12-05T09:36:59;125.38;;;117.25;;
60973;SDS011;46846;51.528;5.076;2022-12-05T09:39:26;120.70;;;113.40;;
60973;SDS011;46846;51.528;5.076;2022-12-05T09:41:56;120.22;;;112.70;;
60973;SDS011;46846;51.528;5.076;2022-12-05T09:47:02;129.55;;;121.25;;
60973;SDS011;46846;51.528;5.076;2022-12-05T09:49:45;116.45;;;109.03;;
60973;SDS011;46846;51.528;5.076;2022-12-05T09:52:19;112.10;;;105.10;;
60973;SDS011;46846;51.528;5.076;2022-12-05T09:54:49;125.38;;;117.55;;
60973;SDS011;46846;51.528;5.076;2022-12-05T09:57:16;114.53;;;107.50;;
60973;SDS011;46846;51.528;5.076;2022-12-05T09:59:44;127.82;;;119.30;;
60973;SDS011;46846;51.528;5.076;2022-12-05T10:02:20;116.80;;;109.60;;
60973;SDS011;46846;51.528;5.076;2022-12-05T10:04:54;117.13;;;109.35;;
60973;SDS011;46846;51.528;5.076;2022-12-05T10:15:30;119.18;;;111.45;;
60973;SDS011;46846;51.528;5.076;2022-12-05T10:18:00;117.82;;;110.53;;
60973;SDS011;46846;51.528;5.076;2022-12-05T10:20:34;118.63;;;111.55;;
60973;SDS011;46846;51.528;5.076;2022-12-05T10:23:09;117.80;;;110.00;;
60973;SDS011;46846;51.528;5.076;2022-12-05T10:25:39;123.63;;;115.72;;
60973;SDS011;46846;51.528;5.076;2022-12-05T10:28:27;126.93;;;118.97;;
60973;SDS011;46846;51.528;5.076;2022-12-05T10:30:59;126.15;;;118.03;;
60973;SDS011;46846;51.528;5.076;2022-12-05T10:33:30;116.47;;;108.80;;
60973;SDS011;46846;51.528;5.076;2022-12-05T10:36:01;122.72;;;114.72;;
60973;SDS011;46846;51.528;5.076;2022-12-05T10:38:30;118.07;;;110.72;;
60973;SDS011;46846;51.528;5.076;2022-12-05T10:41:00;126.95;;;119.00;;
60973;SDS011;46846;51.528;5.076;2022-12-05T10:43:30;121.00;;;113.30;;
60973;SDS011;46846;51.528;5.076;2022-12-05T10:45:57;129.10;;;121.18;;
60973;SDS011;46846;51.528;5.076;2022-12-05T10:48:24;115.90;;;108.93;;
60973;SDS011;46846;51.528;5.076;2022-12-05T10:50:54;124.53;;;117.10;;
60973;SDS011;46846;51.528;5.076;2022-12-05T10:53:28;127.00;;;119.10;;
60973;SDS011;46846;51.528;5.076;2022-12-05T10:59:07;123.22;;;115.68;;
60973;SDS011;46846;51.528;5.076;2022-12-05T11:01:34;123.20;;;115.55;;
60973;SDS011;46846;51.528;5.076;2022-12-05T11:06:51;121.22;;;114.10;;
60973;SDS011;46846;51.528;5.076;2022-12-05T11:09:32;127.32;;;119.60;;
60973;SDS011;46846;51.528;5.076;2022-12-05T11:17:28;117.90;;;110.97;;
60973;SDS011;46846;51.528;5.076;2022-12-05T11:19:58;120.03;;;112.90;;
60973;SDS011;46846;51.528;5.076;2022-12-05T11:22:34;124.47;;;116.65;;
60973;SDS011;46846;51.528;5.076;2022-12-05T11:27:27;112.70;;;106.13;;
60973;SDS011;46846;51.528;5.076;2022-12-05T11:29:59;108.28;;;102.03;;
60973;SDS011;46846;51.528;5.076;2022-12-05T11:32:29;112.47;;;105.72;;
60973;SDS011;46846;51.528;5.076;2022-12-05T11:35:06;115.30;;;108.57;;
60973;SDS011;46846;51.528;5.076;2022-12-05T11:40:29;113.70;;;106.97;;
60973;SDS011;46846;51.528;5.076;2022-12-05T12:03:09;114.90;;;107.93;;
60973;SDS011;46846;51.528;5.076;2022-12-05T12:05:55;119.93;;;112.45;;
60973;SDS011;46846;51.528;5.076;2022-12-05T12:08:26;114.93;;;108.10;;
60973;SDS011;46846;51.528;5.076;2022-12-05T12:35:59;119.82;;;112.68;;
60973;SDS011;46846;51.528;5.076;2022-12-05T12:44:20;115.90;;;109.00;;
60973;SDS011;46846;51.528;5.076;2022-12-05T12:47:07;114.47;;;107.72;;
60973;SDS011;46846;51.528;5.076;2022-12-05T13:01:29;110.80;;;104.35;;
60973;SDS011;46846;51.528;5.076;2022-12-05T13:03:56;125.68;;;118.07;;
60973;SDS011;46846;51.528;5.076;2022-12-05T13:06:30;125.15;;;117.25;;
60973;SDS011;46846;51.528;5.076;2022-12-05T13:09:28;121.63;;;114.18;;
60973;SDS011;46846;51.528;5.076;2022-12-05T13:12:03;128.13;;;120.50;;
60973;SDS011;46846;51.528;5.076;2022-12-05T13:14:34;118.10;;;111.07;;
60973;SDS011;46846;51.528;5.076;2022-12-05T13:17:02;113.47;;;106.72;;
60973;SDS011;46846;51.528;5.076;2022-12-05T13:19:44;126.47;;;119.07;;
60973;SDS011;46846;51.528;5.076;2022-12-05T13:22:12;124.97;;;117.57;;
60973;SDS011;46846;51.528;5.076;2022-12-05T13:24:39;123.70;;;116.50;;
60973;SDS011;46846;51.528;5.076;2022-12-05T13:27:07;120.70;;;113.68;;
60973;SDS011;46846;51.528;5.076;2022-12-05T13:29:40;122.28;;;115.13;;
60973;SDS011;46846;51.528;5.076;2022-12-05T13:37:33;120.60;;;113.40;;
60973;SDS011;46846;51.528;5.076;2022-12-05T13:40:20;119.28;;;112.40;;
60973;SDS011;46846;51.528;5.076;2022-12-05T13:43:08;113.68;;;107.05;;
60973;SDS011;46846;51.528;5.076;2022-12-05T13:45:35;119.63;;;112.57;;
60973;SDS011;46846;51.528;5.076;2022-12-05T13:48:05;128.52;;;120.60;;
60973;SDS011;46846;51.528;5.076;2022-12-05T13:50:43;118.35;;;111.40;;
60973;SDS011;46846;51.528;5.076;2022-12-05T14:17:35;114.85;;;108.00;;
60973;SDS011;46846;51.528;5.076;2022-12-05T14:25:46;128.10;;;120.60;;
60973;SDS011;46846;51.528;5.076;2022-12-05T14:36:52;128.75;;;121.00;;
60973;SDS011;46846;51.528;5.076;2022-12-05T14:39:31;129.35;;;121.65;;
60973;SDS011;46846;51.528;5.076;2022-12-05T14:42:02;134.00;;;125.57;;
60973;SDS011;46846;51.528;5.076;2022-12-05T14:44:44;122.15;;;113.82;;
60973;SDS011;46846;51.528;5.076;2022-12-05T14:47:11;124.20;;;116.82;;
60973;SDS011;46846;51.528;5.076;2022-12-05T14:52:28;125.15;;;117.72;;
60973;SDS011;46846;51.528;5.076;2022-12-05T14:55:06;131.50;;;123.93;;
60973;SDS011;46846;51.528;5.076;2022-12-05T14:57:43;137.20;;;128.52;;
60973;SDS011;46846;51.528;5.076;2022-12-05T15:00:19;123.57;;;116.20;;
60973;SDS011;46846;51.528;5.076;2022-12-05T15:02:46;123.90;;;116.85;;
60973;SDS011;46846;51.528;5.076;2022-12-05T15:05:20;131.30;;;123.18;;
60973;SDS011;46846;51.528;5.076;2022-12-05T15:07:46;128.95;;;121.30;;
60973;SDS011;46846;51.528;5.076;2022-12-05T15:10:15;121.78;;;114.55;;
60973;SDS011;46846;51.528;5.076;2022-12-05T15:12:49;127.07;;;119.82;;
60973;SDS011;46846;51.528;5.076;2022-12-05T15:23:54;120.57;;;113.68;;
60973;SDS011;46846;51.528;5.076;2022-12-05T15:26:26;126.05;;;118.70;;
60973;SDS011;46846;51.528;5.076;2022-12-05T15:31:27;123.72;;;116.45;;
60973;SDS011;46846;51.528;5.076;2022-12-05T15:33:56;136.40;;;128.13;;
60973;SDS011;46846;51.528;5.076;2022-12-05T15:36:26;126.63;;;119.30;;
60973;SDS011;46846;51.528;5.076;2022-12-05T15:39:01;122.65;;;115.15;;
60973;SDS011;46846;51.528;5.076;2022-12-05T15:41:28;125.85;;;118.82;;
60973;SDS011;46846;51.528;5.076;2022-12-05T15:43:54;126.67;;;119.20;;
60973;SDS011;46846;51.528;5.076;2022-12-05T15:46:24;134.10;;;126.15;;
60973;SDS011;46846;51.528;5.076;2022-12-05T15:48:52;133.52;;;125.88;;
60973;SDS011;46846;51.528;5.076;2022-12-05T15:51:19;131.38;;;122.80;;
60973;SDS011;46846;51.528;5.076;2022-12-05T15:53:51;130.52;;;122.88;;
60973;SDS011;46846;51.528;5.076;2022-12-05T15:56:39;121.43;;;114.22;;
60973;SDS011;46846;51.528;5.076;2022-12-05T16:01:39;129.17;;;121.30;;
60973;SDS011;46846;51.528;5.076;2022-12-05T16:04:13;128.75;;;121.47;;
60973;SDS011;46846;51.528;5.076;2022-12-05T16:06:54;130.02;;;122.53;;
60973;SDS011;46846;51.528;5.076;2022-12-05T16:09:25;124.05;;;116.80;;
60973;SDS011;46846;51.528;5.076;2022-12-05T16:11:55;123.20;;;115.97;;
60973;SDS011;46846;51.528;5.076;2022-12-05T16:14:24;134.65;;;126.47;;
60973;SDS011;46846;51.528;5.076;2022-12-05T16:16:56;132.07;;;124.28;;
60973;SDS011;46846;51.528;5.076;2022-12-05T16:19:25;136.63;;;128.57;;
60973;SDS011;46846;51.528;5.076;2022-12-05T16:22:01;129.80;;;122.32;;
60973;SDS011;46846;51.528;5.076;2022-12-05T16:24:38;125.18;;;118.00;;
60973;SDS011;46846;51.528;5.076;2022-12-05T16:27:20;124.63;;;117.20;;
60973;SDS011;46846;51.528;5.076;2022-12-05T16:30:06;132.13;;;124.38;;
60973;SDS011;46846;51.528;5.076;2022-12-05T16:32:41;126.00;;;118.80;;
60973;SDS011;46846;51.528;5.076;2022-12-05T16:40:38;129.90;;;122.57;;
60973;SDS011;46846;51.528;5.076;2022-12-05T16:43:16;128.68;;;121.45;;
60973;SDS011;46846;51.528;5.076;2022-12-05T16:48:40;125.32;;;118.22;;
60973;SDS011;46846;51.528;5.076;2022-12-05T16:53:37;127.05;;;119.65;;
60973;SDS011;46846;51.528;5.076;2022-12-05T16:56:04;135.55;;;127.80;;
60973;SDS011;46846;51.528;5.076;2022-12-05T16:58:33;126.07;;;118.68;;
60973;SDS011;46846;51.528;5.076;2022-12-05T17:01:00;136.65;;;128.85;;
60973;SDS011;46846;51.528;5.076;2022-12-05T17:03:28;126.93;;;119.63;;
60973;SDS011;46846;51.528;5.076;2022-12-05T17:05:53;135.48;;;127.78;;
60973;SDS011;46846;51.528;5.076;2022-12-05T17:08:20;130.23;;;122.88;;
60973;SDS011;46846;51.528;5.076;2022-12-05T17:10:45;131.90;;;124.18;;
60973;SDS011;46846;51.528;5.076;2022-12-05T17:13:14;126.38;;;119.18;;
60973;SDS011;46846;51.528;5.076;2022-12-05T17:15:41;133.38;;;125.38;;
60973;SDS011;46846;51.528;5.076;2022-12-05T17:18:13;127.30;;;120.15;;
60973;SDS011;46846;51.528;5.076;2022-12-05T17:20:41;125.15;;;118.10;;
60973;SDS011;46846;51.528;5.076;2022-12-05T17:23:12;136.18;;;128.45;;
60973;SDS011;46846;51.528;5.076;2022-12-05T17:25:40;125.25;;;118.13;;
60973;SDS011;46846;51.528;5.076;2022-12-05T17:28:08;133.88;;;126.35;;
60973;SDS011;46846;51.528;5.076;2022-12-05T17:30:34;135.68;;;127.93;;
60973;SDS011;46846;51.528;5.076;2022-12-05T17:32:59;134.88;;;127.18;;
60973;SDS011;46846;51.528;5.076;2022-12-05T17:35:26;131.38;;;123.93;;
60973;SDS011;46846;51.528;5.076;2022-12-05T17:37:53;128.27;;;121.05;;
60973;SDS011;46846;51.528;5.076;2022-12-05T17:40:19;129.77;;;122.50;;
60973;SDS011;46846;51.528;5.076;2022-12-05T17:42:44;136.77;;;129.00;;